< Cyclone 201516 2015 Season Cyclone 201519 >
Cyclone 201517 (Nathan)
General InformationTrack Information on Google MapsDetailed Wind InformationList of All Images || ResourceGoogle EarthGE AnimationAtom FeedGeoJSON
Detalied Best Track (Time Zone = UTC)
Year Month Day Hour Lat. Long. Pressure (hPa) Wind (kt) Class Image Chart
2015 3 9 00 -12.3 151.3 998 15 2 Image --
2015 3 9 06 -12.3 150.9 998 15 2 Image --
2015 3 9 12 -12.4 150.4 998 25 2 Image --
2015 3 10 00 -12.4 149.6 998 30 2 Image --
2015 3 10 06 -13.0 149.0 998 30 2 Image --
2015 3 10 12 -13.0 148.3 993 40 3 Image --
2015 3 10 18 -13.4 147.5 991 45 3 Image --
2015 3 11 00 -13.7 146.8 990 50 4 Image --
2015 3 11 06 -13.7 146.4 986 50 4 Image --
2015 3 11 12 -13.8 146.0 985 50 4 Image --
2015 3 11 18 -13.7 145.8 986 50 4 Image --
2015 3 12 00 -13.8 145.4 987 50 4 Image --
2015 3 12 06 -13.8 145.1 982 50 4 Image --
2015 3 12 12 -13.7 145.0 980 55 4 Image --
2015 3 12 18 -13.4 145.0 981 55 4 Image --
2015 3 13 00 -13.3 145.0 980 55 4 Image --
2015 3 13 06 -13.3 145.1 979 55 4 Image --
2015 3 13 12 -13.1 145.0 982 55 4 Image --
2015 3 13 18 -13.0 145.0 980 55 4 Image --
2015 3 14 00 -13.2 145.5 989 50 4 Image --
2015 3 14 06 -13.0 145.8 990 45 3 Image --
2015 3 14 12 -13.2 146.9 995 40 3 Image --
2015 3 14 18 -13.3 147.5 994 40 3 Image --
2015 3 15 00 -13.1 148.5 995 45 3 Image --
2015 3 15 06 -13.6 148.8 989 45 3 Image --
2015 3 15 12 -13.6 149.0 987 45 3 Image --
2015 3 15 18 -13.7 149.7 985 50 4 Image --
2015 3 16 00 -13.8 149.7 988 50 4 Image --
2015 3 16 06 -13.9 149.8 984 55 4 Image --
2015 3 16 12 -14.0 149.8 989 50 4 Image --
2015 3 16 18 -14.2 149.7 990 50 4 Image --
2015 3 17 00 -14.4 149.6 994 45 3 Image --
2015 3 17 06 -14.6 149.7 993 45 3 Image --
2015 3 17 12 -14.8 149.7 996 40 3 Image --
2015 3 17 18 -15.1 149.4 993 45 3 Image --
2015 3 18 00 -15.1 149.2 990 50 4 Image --
2015 3 18 06 -14.9 149.0 977 65 5 Image --
2015 3 18 12 -14.7 148.8 971 75 5 Image --
2015 3 18 18 -14.6 148.2 972 75 5 Image --
2015 3 19 00 -14.5 147.6 972 75 5 Image --
2015 3 19 06 -14.6 146.9 971 75 5 Image --
2015 3 19 12 -14.7 146.0 964 85 5 Image --
2015 3 19 18 -14.6 145.0 963 90 5 Image --
2015 3 20 00 -14.4 144.2 983 65 5 Image --
2015 3 20 06 -14.3 143.2 995 45 3 Image --
2015 3 20 12 -14.3 142.2 998 40 3 Image --
2015 3 20 18 -14.0 141.4 999 35 3 Image --
2015 3 21 00 -13.6 140.2 999 40 3 Image --
2015 3 21 06 -13.6 139.4 999 40 3 Image --
2015 3 21 12 -13.3 138.5 990 50 4 Image --
2015 3 21 18 -12.9 137.3 986 60 4 Image --
2015 3 22 00 -12.5 136.8 984 60 4 Image --
2015 3 22 06 -12.1 136.1 988 55 4 Image --
2015 3 22 12 -11.6 135.6 986 55 4 Image --
2015 3 22 18 -11.6 135.2 981 60 4 Image --
2015 3 23 00 -11.5 134.7 982 60 4 Image --
2015 3 23 06 -11.4 134.5 985 55 4 Image --
2015 3 23 12 -11.4 134.3 988 50 4 Image --
2015 3 23 18 -11.6 134.0 991 45 3 Image --
2015 3 24 00 -12.1 133.5 998 35 3 Image --
2015 3 24 06 -12.4 132.6 1003 0 0 Image --
2015 3 24 12 -12.3 132.3 1005 0 0 Image --
2015 3 24 18 -12.4 132.0 1006 0 0 Image --
2015 3 25 00 -12.7 131.7 1008 0 0 Image --
2015 3 25 06 -12.9 130.5 1006 0 0 Image --
2015 3 25 12 -13.5 130.2 1009 0 0 Image --
2015 3 25 18 -13.6 129.9 1008 0 0 Image --
2015 3 26 00 -12.7 128.5 1009 0 0 Image --
2015 3 26 06 -12.9 128.0 1008 0 0 Image --
2015 3 26 12 -12.9 127.2 1009 0 0 Image --
2015 3 26 18 -12.9 126.8 1010 0 0 Image --
2015 3 27 00 -12.9 126.0 1010 0 0 Image --
< Cyclone 201516 2015 Season Cyclone 201519 >

Help